Time;durP1;ratioP1;P1;durP2;ratioP2;P2;SDS_P1;SDS_P2;PMS_P1;PMS_P2;Temp;Humidity;BMP_temperature;BMP_pressure;BME280_temperature;BME280_humidity;BME280_pressure;Samples;Min_cycle;Max_cycle;Signal;HPM_P1;HPM_P2
2021/12/12 00:02:10;;;;;;;2.03;1.30;;;8.40;98.50;;;;;;5071160;28;20182;-75
2021/12/12 00:04:38;;;;;;;2.27;1.20;;;8.40;98.50;;;;;;5069513;28;20904;-73
2021/12/12 00:07:10;;;;;;;0.67;0.63;;;8.40;98.50;;;;;;5077842;28;20179;-71
2021/12/12 00:09:44;;;;;;;1.03;0.80;;;8.40;98.50;;;;;;5066569;28;20173;-71
2021/12/12 00:12:16;;;;;;;0.90;0.70;;;8.30;98.50;;;;;;5073399;28;20632;-73
2021/12/12 00:14:43;;;;;;;1.00;1.00;;;8.20;98.50;;;;;;5066395;28;20183;-73
2021/12/12 00:17:11;;;;;;;0.80;0.80;;;8.10;98.50;;;;;;5070699;28;20649;-73
2021/12/12 00:19:37;;;;;;;0.80;0.80;;;8.20;98.50;;;;;;5065778;28;20217;-73
2021/12/12 00:22:07;;;;;;;0.80;0.80;;;8.20;98.50;;;;;;5069937;28;20214;-72
2021/12/12 00:24:33;;;;;;;0.60;0.60;;;8.20;98.50;;;;;;5069897;28;20298;-72
2021/12/12 00:27:00;;;;;;;0.70;0.70;;;8.30;98.50;;;;;;5066608;28;20610;-72
2021/12/12 00:29:27;;;;;;;0.80;0.80;;;8.30;98.50;;;;;;5066001;28;20263;-73
2021/12/12 00:31:58;;;;;;;0.80;0.80;;;8.30;98.50;;;;;;5064821;28;20271;-73
2021/12/12 00:34:29;;;;;;;0.70;0.70;;;8.30;98.50;;;;;;5072748;28;20658;-73
2021/12/12 00:36:55;;;;;;;0.97;0.70;;;8.30;98.50;;;;;;5066720;28;20612;-72
2021/12/12 00:39:26;;;;;;;2.17;0.97;;;8.40;98.50;;;;;;5065184;28;20210;-71
2021/12/12 00:41:58;;;;;;;0.60;0.60;;;8.30;98.50;;;;;;5072868;28;20198;-72
2021/12/12 00:44:25;;;;;;;0.60;0.60;;;8.30;98.50;;;;;;5072126;28;20182;-72
2021/12/12 00:46:54;;;;;;;0.83;0.83;;;8.30;98.50;;;;;;5070322;28;20256;-73
2021/12/12 00:49:20;;;;;;;0.57;0.57;;;8.40;98.50;;;;;;5070688;28;20271;-72
2021/12/12 00:51:48;;;;;;;1.70;0.80;;;8.30;98.50;;;;;;5064696;28;20191;-74
2021/12/12 00:54:16;;;;;;;0.80;0.80;;;8.30;98.50;;;;;;5070555;28;20193;-72
2021/12/12 00:56:43;;;;;;;1.10;1.10;;;8.30;98.50;;;;;;5066565;28;21002;-72
2021/12/12 00:59:09;;;;;;;0.40;0.40;;;8.30;98.50;;;;;;5069230;28;20213;-72
2021/12/12 01:01:48;;;;;;;0.30;0.30;;;8.30;98.20;;;;;;5074360;28;20910;-72
2021/12/12 01:04:33;;;;;;;0.10;0.10;;;8.20;97.00;;;;;;5070957;28;20599;-72
2021/12/12 01:07:03;;;;;;;3.50;0.10;;;8.10;95.90;;;;;;5063800;28;20553;-72
2021/12/12 01:09:34;;;;;;;0.00;0.00;;;8.00;95.50;;;;;;5072668;28;20298;-72
2021/12/12 01:12:04;;;;;;;0.00;0.00;;;8.00;94.70;;;;;;5062479;28;20179;-72
2021/12/12 01:14:34;;;;;;;0.00;0.00;;;8.10;94.90;;;;;;5066399;28;20194;-72
2021/12/12 01:17:15;;;;;;;0.00;0.00;;;8.10;95.10;;;;;;5065410;28;20182;-72
2021/12/12 01:19:45;;;;;;;0.00;0.00;;;8.10;94.50;;;;;;5070757;28;20211;-72
2021/12/12 01:22:17;;;;;;;0.00;0.00;;;8.20;94.30;;;;;;5075058;28;20210;-72
2021/12/12 01:24:46;;;;;;;0.60;0.60;;;8.20;94.60;;;;;;5068155;28;20284;-72
2021/12/12 01:27:13;;;;;;;0.60;0.60;;;8.20;95.50;;;;;;5071443;28;20186;-72
2021/12/12 01:29:40;;;;;;;1.07;1.03;;;8.10;96.60;;;;;;5068906;28;20197;-72
2021/12/12 01:32:12;;;;;;;1.20;1.20;;;8.10;97.00;;;;;;5074027;28;20187;-72
2021/12/12 01:34:39;;;;;;;0.60;0.60;;;8.10;97.20;;;;;;5068927;28;20753;-72
2021/12/12 01:40:05;;;;;;;1.03;0.40;;;8.10;96.80;;;;;;5072884;28;20698;-72
2021/12/12 01:42:45;;;;;;;0.50;0.50;;;8.10;96.80;;;;;;5069404;28;20189;-72
2021/12/12 01:45:14;;;;;;;0.20;0.20;;;8.00;96.60;;;;;;5074504;28;20179;-73
2021/12/12 01:47:45;;;;;;;0.10;0.10;;;8.00;95.90;;;;;;5068645;28;20182;-73
2021/12/12 01:50:17;;;;;;;0.00;0.00;;;7.90;95.30;;;;;;5065566;28;20567;-71
2021/12/12 01:52:45;;;;;;;0.83;0.10;;;7.90;95.00;;;;;;5073332;28;20183;-72
2021/12/12 01:55:22;;;;;;;0.00;0.00;;;7.90;94.80;;;;;;5069191;28;20285;-72
2021/12/12 01:57:49;;;;;;;0.20;0.07;;;7.90;94.80;;;;;;5069834;28;20186;-72
2021/12/12 02:00:24;;;;;;;0.93;0.10;;;7.90;94.20;;;;;;5069556;28;20228;-71
2021/12/12 02:02:50;;;;;;;0.10;0.10;;;7.90;94.20;;;;;;5071369;28;20182;-72
2021/12/12 02:05:18;;;;;;;0.10;0.10;;;7.90;94.40;;;;;;5065942;28;20190;-72
2021/12/12 02:07:50;;;;;;;0.20;0.20;;;8.00;94.70;;;;;;5067295;28;20190;-74
2021/12/12 02:10:32;;;;;;;0.27;0.27;;;8.00;94.80;;;;;;5068604;28;20197;-74
2021/12/12 02:13:11;;;;;;;0.57;0.30;;;8.00;94.90;;;;;;5067537;28;20882;-74
2021/12/12 02:15:38;;;;;;;0.30;0.30;;;8.00;94.80;;;;;;5070908;28;20324;-73
2021/12/12 02:18:11;;;;;;;0.10;0.10;;;7.90;95.00;;;;;;5071036;28;20197;-73
2021/12/12 02:20:47;;;;;;;0.10;0.10;;;7.90;94.90;;;;;;5067917;28;20215;-71
2021/12/12 02:23:36;;;;;;;0.00;0.00;;;7.90;94.40;;;;;;5071334;28;20288;-73
2021/12/12 02:37:06;;;;;;;0.30;0.30;;;7.90;94.30;;;;;;5069843;28;20741;-72
2021/12/12 02:39:35;;;;;;;0.40;0.40;;;7.90;94.70;;;;;;5067389;28;20241;-72
2021/12/12 02:42:06;;;;;;;0.50;0.50;;;7.90;94.80;;;;;;5070759;28;20254;-72
2021/12/12 02:44:35;;;;;;;0.40;0.40;;;7.90;94.70;;;;;;5070829;28;20182;-73
2021/12/12 02:47:10;;;;;;;0.50;0.50;;;7.80;94.20;;;;;;5067161;28;20553;-72
2021/12/12 02:52:04;;;;;;;1.63;0.30;;;7.60;93.90;;;;;;5069718;28;20594;-72
2021/12/12 02:54:30;;;;;;;0.30;0.30;;;7.50;94.40;;;;;;5070339;28;20176;-73
2021/12/12 02:56:56;;;;;;;0.30;0.30;;;7.50;94.50;;;;;;5075213;28;20620;-73
2021/12/12 02:59:24;;;;;;;0.30;0.30;;;7.40;94.80;;;;;;5066357;28;20210;-73
2021/12/12 03:02:14;;;;;;;0.33;0.33;;;7.40;95.30;;;;;;5070603;28;20186;-73
2021/12/12 03:04:40;;;;;;;0.23;0.23;;;7.40;94.80;;;;;;5067209;28;20186;-73
2021/12/12 03:07:08;;;;;;;0.23;0.23;;;7.40;94.80;;;;;;5071684;28;20820;-72
2021/12/12 03:09:41;;;;;;;0.20;0.20;;;7.40;95.00;;;;;;5067690;28;20261;-72
2021/12/12 03:12:14;;;;;;;0.20;0.20;;;7.40;95.10;;;;;;5066142;28;20548;-72
2021/12/12 03:14:41;;;;;;;0.77;0.30;;;7.40;95.10;;;;;;5069617;28;20184;-72
2021/12/12 03:17:12;;;;;;;0.30;0.30;;;7.40;94.80;;;;;;5070643;28;20694;-72
2021/12/12 03:19:39;;;;;;;0.20;0.20;;;7.20;94.10;;;;;;5065755;28;20215;-72
2021/12/12 03:22:08;;;;;;;0.10;0.10;;;7.10;94.70;;;;;;5080500;28;20186;-73
2021/12/12 03:24:34;;;;;;;0.37;0.37;;;7.00;94.90;;;;;;5073335;28;20174;-72
2021/12/12 03:27:04;;;;;;;0.20;0.20;;;7.00;94.70;;;;;;5075817;28;20249;-73
2021/12/12 03:29:30;;;;;;;0.20;0.20;;;6.90;95.00;;;;;;5076448;28;20178;-71
2021/12/12 03:32:02;;;;;;;0.30;0.30;;;6.90;95.10;;;;;;5067660;28;20185;-70
2021/12/12 03:34:36;;;;;;;0.20;0.20;;;6.90;95.10;;;;;;5070216;28;20195;-73
2021/12/12 03:37:04;;;;;;;0.20;0.20;;;6.80;95.50;;;;;;5068791;28;20194;-72
2021/12/12 03:39:34;;;;;;;0.20;0.20;;;6.80;95.60;;;;;;5075134;28;20218;-72
2021/12/12 03:42:05;;;;;;;0.47;0.30;;;6.70;95.40;;;;;;5071227;28;20637;-72
2021/12/12 03:44:35;;;;;;;0.30;0.30;;;6.60;95.70;;;;;;5071074;28;20179;-73
2021/12/12 03:47:26;;;;;;;0.30;0.30;;;6.60;95.80;;;;;;5069472;28;20576;-72
2021/12/12 03:49:54;;;;;;;0.23;0.23;;;6.60;96.00;;;;;;5072209;28;20951;-73
2021/12/12 03:52:21;;;;;;;0.20;0.20;;;6.60;95.80;;;;;;5075869;28;20182;-73
2021/12/12 03:54:48;;;;;;;0.30;0.30;;;6.50;95.50;;;;;;5069984;28;20182;-73
2021/12/12 03:57:18;;;;;;;0.60;0.50;;;6.40;95.40;;;;;;5076990;28;20674;-73
2021/12/12 03:59:44;;;;;;;3.53;0.37;;;6.30;95.50;;;;;;5067640;28;20214;-72
2021/12/12 04:02:10;;;;;;;0.30;0.30;;;6.30;96.00;;;;;;5074329;28;20605;-73
2021/12/12 04:04:42;;;;;;;0.40;0.40;;;6.30;96.40;;;;;;5073413;28;20728;-74
2021/12/12 04:07:13;;;;;;;0.30;0.30;;;6.30;96.60;;;;;;5069200;28;20187;-72
2021/12/12 04:09:39;;;;;;;0.60;0.40;;;6.40;96.50;;;;;;5072368;28;20184;-72
2021/12/12 04:12:07;;;;;;;0.53;0.37;;;6.40;96.40;;;;;;5070577;28;20236;-72
2021/12/12 04:14:33;;;;;;;0.47;0.47;;;6.40;96.40;;;;;;5069786;28;20220;-73
2021/12/12 04:17:04;;;;;;;0.37;0.37;;;6.40;96.20;;;;;;5072726;28;20211;-72
2021/12/12 04:19:30;;;;;;;0.30;0.30;;;6.40;95.90;;;;;;5066926;28;20207;-73
2021/12/12 04:21:56;;;;;;;0.30;0.30;;;6.40;96.20;;;;;;5075161;28;20684;-73
2021/12/12 04:24:28;;;;;;;0.50;0.30;;;6.40;96.20;;;;;;5071843;28;20190;-72
2021/12/12 04:26:54;;;;;;;0.30;0.30;;;6.40;95.90;;;;;;5073160;28;20217;-73
2021/12/12 04:29:25;;;;;;;0.33;0.33;;;6.40;96.00;;;;;;5066270;28;20190;-73
2021/12/12 04:31:54;;;;;;;0.30;0.30;;;6.40;95.70;;;;;;5067377;28;20179;-72
2021/12/12 04:34:23;;;;;;;0.40;0.40;;;6.40;95.50;;;;;;5073161;28;20198;-72
2021/12/12 04:36:50;;;;;;;1.60;0.30;;;6.40;95.40;;;;;;5069953;28;20225;-72
2021/12/12 04:39:26;;;;;;;0.23;0.20;;;6.40;95.40;;;;;;5070538;28;20264;-73
2021/12/12 04:41:56;;;;;;;0.20;0.20;;;6.30;95.10;;;;;;5076515;28;20729;-73
2021/12/12 04:44:26;;;;;;;0.20;0.20;;;6.10;93.80;;;;;;5069233;28;20186;-73
2021/12/12 04:50:09;;;;;;;0.20;0.20;;;5.80;93.90;;;;;;5067539;28;20241;-72
2021/12/12 04:52:47;;;;;;;0.10;0.10;;;5.70;93.70;;;;;;5074248;28;20205;-73
2021/12/12 04:55:30;;;;;;;0.90;0.20;;;5.60;93.60;;;;;;5069381;28;20691;-72
2021/12/12 04:58:17;;;;;;;0.33;0.33;;;5.30;93.50;;;;;;5065896;28;20179;-72
2021/12/12 05:01:12;;;;;;;0.30;0.30;;;5.20;94.00;;;;;;5068050;28;21002;-73
2021/12/12 05:03:51;;;;;;;0.53;0.20;;;5.10;94.30;;;;;;5017754;28;20684;-73
2021/12/12 05:06:28;;;;;;;0.10;0.10;;;5.10;94.20;;;;;;5017475;28;20183;-73
2021/12/12 05:08:54;;;;;;;0.20;0.20;;;5.00;94.20;;;;;;5014826;28;20205;-73
2021/12/12 05:11:49;;;;;;;0.03;0.03;;;4.90;93.90;;;;;;5021559;28;20913;-73
2021/12/12 05:14:22;;;;;;;0.10;0.10;;;4.80;94.20;;;;;;5020460;28;20331;-73
2021/12/12 05:16:58;;;;;;;0.10;0.10;;;4.70;94.20;;;;;;5005715;28;20184;-72
2021/12/12 05:19:27;;;;;;;0.10;0.10;;;4.60;94.10;;;;;;5021588;28;20294;-73
2021/12/12 05:21:59;;;;;;;0.10;0.10;;;4.60;94.20;;;;;;5020373;28;20359;-73
2021/12/12 05:24:28;;;;;;;0.10;0.10;;;4.60;94.20;;;;;;5020413;28;20583;-73
2021/12/12 05:27:02;;;;;;;0.10;0.10;;;4.50;94.40;;;;;;5018649;28;20196;-72
2021/12/12 05:29:54;;;;;;;0.10;0.10;;;4.50;94.20;;;;;;5003075;28;20187;-72
2021/12/12 05:32:22;;;;;;;1.90;0.20;;;4.40;94.70;;;;;;5020651;28;20224;-72
2021/12/12 05:34:49;;;;;;;0.10;0.10;;;4.30;94.70;;;;;;4994657;28;20619;-73
2021/12/12 05:37:19;;;;;;;0.10;0.10;;;4.20;95.00;;;;;;5021117;28;20334;-72
2021/12/12 05:39:45;;;;;;;0.10;0.10;;;4.20;95.00;;;;;;5026066;28;20219;-69
2021/12/12 05:42:13;;;;;;;0.30;0.30;;;4.20;95.10;;;;;;5050971;28;20183;-71
2021/12/12 05:44:40;;;;;;;0.10;0.10;;;4.20;95.40;;;;;;5049889;28;20633;-72
2021/12/12 05:47:07;;;;;;;0.10;0.10;;;4.10;95.00;;;;;;5050107;28;20196;-71
2021/12/12 05:49:35;;;;;;;0.10;0.10;;;4.00;94.60;;;;;;5044999;28;20202;-73
2021/12/12 05:52:01;;;;;;;0.00;0.00;;;3.90;94.60;;;;;;5072309;28;20187;-73
2021/12/12 05:54:29;;;;;;;0.00;0.00;;;3.80;94.60;;;;;;5067935;28;20171;-73
2021/12/12 05:56:55;;;;;;;0.10;0.10;;;3.80;94.60;;;;;;5071895;28;20237;-72
2021/12/12 05:59:22;;;;;;;0.10;0.10;;;3.70;94.70;;;;;;5065686;28;20214;-73
2021/12/12 06:01:49;;;;;;;0.10;0.10;;;3.70;94.90;;;;;;5067587;28;20355;-73
2021/12/12 06:04:17;;;;;;;0.20;0.20;;;3.70;94.80;;;;;;5070187;28;20187;-72
2021/12/12 06:06:43;;;;;;;0.10;0.10;;;3.70;94.70;;;;;;5070043;28;20656;-74
2021/12/12 06:09:12;;;;;;;0.40;0.40;;;3.60;94.90;;;;;;5071844;28;20194;-73
2021/12/12 06:11:41;;;;;;;0.10;0.10;;;3.50;94.90;;;;;;5071542;28;20852;-72
2021/12/12 06:14:07;;;;;;;0.00;0.00;;;3.50;95.20;;;;;;5066372;28;20179;-72
2021/12/12 06:16:34;;;;;;;0.07;0.07;;;3.40;95.10;;;;;;5072111;28;20185;-72
2021/12/12 06:19:13;;;;;;;0.10;0.10;;;3.40;95.20;;;;;;5070923;28;20304;-71
2021/12/12 06:21:40;;;;;;;1.07;0.30;;;3.30;95.50;;;;;;5069976;28;20189;-71
2021/12/12 06:24:06;;;;;;;0.17;0.17;;;3.30;95.70;;;;;;5067601;28;20569;-71
2021/12/12 06:26:33;;;;;;;0.00;0.00;;;3.30;95.50;;;;;;5075218;28;20178;-71
2021/12/12 06:28:59;;;;;;;0.10;0.10;;;3.20;95.50;;;;;;5067518;28;20186;-75
2021/12/12 06:31:25;;;;;;;0.20;0.20;;;3.30;95.70;;;;;;5063638;28;20189;-76
2021/12/12 06:33:51;;;;;;;0.07;0.07;;;3.30;95.30;;;;;;5072603;28;20182;-76
2021/12/12 06:36:17;;;;;;;0.10;0.10;;;3.30;95.30;;;;;;5068984;28;20198;-76
2021/12/12 06:38:47;;;;;;;0.07;0.07;;;3.20;95.50;;;;;;5072244;28;20178;-77
2021/12/12 06:41:14;;;;;;;0.03;0.03;;;3.10;95.70;;;;;;5071878;28;20186;-76
2021/12/12 06:43:42;;;;;;;0.03;0.03;;;3.10;95.80;;;;;;5069576;28;20186;-76
2021/12/12 06:46:08;;;;;;;0.20;0.20;;;3.10;96.00;;;;;;5068454;28;20179;-77
2021/12/12 06:48:36;;;;;;;0.40;0.40;;;3.10;96.30;;;;;;5065550;28;20583;-77
2021/12/12 06:51:03;;;;;;;0.10;0.10;;;3.10;96.30;;;;;;5070186;28;20194;-77
2021/12/12 06:53:32;;;;;;;0.10;0.10;;;3.10;96.00;;;;;;5060016;28;20187;-76
2021/12/12 06:55:58;;;;;;;0.93;0.37;;;3.00;96.10;;;;;;5064126;28;20183;-77
2021/12/12 06:58:27;;;;;;;0.20;0.10;;;3.00;96.20;;;;;;5107184;27;20252;-77
2021/12/12 07:01:00;;;;;;;0.13;0.13;;;2.90;96.60;;;;;;5075312;28;20225;-78
2021/12/12 07:03:26;;;;;;;0.57;0.40;;;2.80;96.80;;;;;;5069838;28;20229;-78
2021/12/12 07:05:52;;;;;;;0.30;0.30;;;2.70;97.20;;;;;;5077250;28;20183;-78
2021/12/12 07:08:21;;;;;;;0.20;0.20;;;2.70;97.60;;;;;;5067407;28;20190;-76
2021/12/12 07:10:47;;;;;;;0.40;0.40;;;2.70;97.80;;;;;;5075104;28;20186;-76
2021/12/12 07:13:13;;;;;;;0.10;0.10;;;2.70;97.70;;;;;;5087911;28;20194;-76
2021/12/12 07:15:50;;;;;;;0.73;0.40;;;2.70;97.70;;;;;;5068423;28;20671;-76
2021/12/12 07:18:23;;;;;;;0.40;0.40;;;2.70;98.00;;;;;;5092031;28;20190;-76
2021/12/12 07:20:53;;;;;;;0.47;0.47;;;2.70;98.10;;;;;;5070804;28;20310;-76
2021/12/12 07:23:19;;;;;;;2.30;0.80;;;2.70;98.20;;;;;;5071704;28;20946;-76
2021/12/12 07:25:45;;;;;;;0.90;0.90;;;2.70;98.30;;;;;;5078055;28;20217;-77
2021/12/12 07:28:13;;;;;;;0.57;0.57;;;2.70;98.40;;;;;;5067100;28;20179;-77
2021/12/12 07:30:39;;;;;;;0.43;0.43;;;2.70;98.50;;;;;;5070378;28;20195;-76
2021/12/12 07:33:05;;;;;;;0.40;0.40;;;2.70;98.50;;;;;;5069482;28;20194;-77
2021/12/12 07:35:36;;;;;;;0.50;0.50;;;2.70;98.50;;;;;;5065119;28;20191;-76
2021/12/12 07:38:05;;;;;;;0.73;0.73;;;2.60;98.50;;;;;;5071868;28;20269;-73
2021/12/12 07:40:31;;;;;;;0.20;0.20;;;2.50;98.50;;;;;;5071491;28;21073;-76
2021/12/12 07:42:57;;;;;;;0.47;0.47;;;2.50;98.50;;;;;;5071671;28;20183;-76
2021/12/12 07:45:24;;;;;;;0.50;0.50;;;2.50;98.50;;;;;;5068126;28;20262;-76
2021/12/12 07:47:51;;;;;;;0.43;0.23;;;2.50;98.50;;;;;;5069984;28;20199;-77
2021/12/12 07:50:21;;;;;;;0.40;0.40;;;2.50;98.50;;;;;;5064234;28;20186;-76
2021/12/12 07:52:50;;;;;;;1.57;0.40;;;2.40;98.50;;;;;;5072334;28;20175;-76
2021/12/12 07:55:16;;;;;;;0.83;0.30;;;2.40;98.50;;;;;;5073275;28;20555;-75
2021/12/12 07:57:42;;;;;;;0.20;0.20;;;2.40;98.50;;;;;;5075636;28;20178;-76
2021/12/12 08:00:14;;;;;;;0.67;0.60;;;2.30;98.50;;;;;;5073094;28;20227;-77
2021/12/12 08:02:41;;;;;;;0.37;0.37;;;2.30;98.50;;;;;;5073246;28;20187;-75
2021/12/12 08:05:09;;;;;;;0.63;0.60;;;2.20;98.50;;;;;;5076360;28;20178;-77
2021/12/12 08:07:38;;;;;;;0.63;0.50;;;2.20;98.50;;;;;;5073137;28;20183;-77
2021/12/12 08:10:07;;;;;;;0.90;0.50;;;2.20;98.50;;;;;;5065970;28;20203;-75
2021/12/12 08:12:33;;;;;;;0.43;0.43;;;2.20;98.50;;;;;;5073773;28;20677;-75
2021/12/12 08:15:05;;;;;;;0.50;0.50;;;2.30;98.50;;;;;;5072606;28;20241;-76
2021/12/12 08:17:31;;;;;;;1.07;0.93;;;2.40;98.50;;;;;;5071758;28;20175;-75
2021/12/12 08:19:59;;;;;;;0.60;0.60;;;2.40;98.50;;;;;;5068878;28;20264;-75
2021/12/12 08:22:26;;;;;;;0.97;0.90;;;2.40;98.30;;;;;;5069573;28;20206;-75
2021/12/12 08:24:55;;;;;;;5.60;0.60;;;2.50;98.20;;;;;;5068870;28;20194;-76
2021/12/12 08:27:20;;;;;;;0.40;0.40;;;2.40;97.50;;;;;;5076125;28;20182;-75
2021/12/12 08:29:46;;;;;;;0.50;0.50;;;2.40;97.80;;;;;;5073089;28;20232;-75
2021/12/12 08:32:14;;;;;;;0.30;0.30;;;2.40;98.00;;;;;;5071028;28;20506;-75
2021/12/12 08:34:41;;;;;;;1.90;0.50;;;2.30;98.00;;;;;;5068612;28;20226;-75
2021/12/12 08:37:07;;;;;;;1.03;0.60;;;2.30;98.10;;;;;;5069667;28;20186;-75
2021/12/12 08:39:35;;;;;;;0.40;0.40;;;2.30;98.50;;;;;;5069479;28;20225;-75
2021/12/12 08:42:04;;;;;;;0.73;0.73;;;2.40;98.30;;;;;;5072612;28;20178;-74
2021/12/12 08:44:31;;;;;;;0.50;0.50;;;2.40;98.30;;;;;;5072892;28;20266;-75
2021/12/12 08:46:59;;;;;;;0.30;0.30;;;2.40;97.80;;;;;;5076465;28;20186;-76
2021/12/12 08:49:28;;;;;;;0.50;0.50;;;2.40;97.30;;;;;;5070947;28;20186;-75
2021/12/12 08:52:03;;;;;;;0.47;0.47;;;2.40;97.20;;;;;;5067990;28;20187;-76
2021/12/12 08:54:31;;;;;;;1.37;0.90;;;2.40;96.70;;;;;;5071233;28;20243;-75
2021/12/12 08:57:06;;;;;;;2.40;1.03;;;2.50;96.60;;;;;;5081946;28;20876;-74
2021/12/12 08:59:36;;;;;;;0.97;0.97;;;2.50;96.50;;;;;;5073160;28;20216;-76
2021/12/12 09:02:08;;;;;;;0.80;0.80;;;2.50;96.10;;;;;;5075133;28;20727;-75
2021/12/12 09:04:54;;;;;;;2.17;1.03;;;2.50;95.90;;;;;;5075604;28;20754;-75
2021/12/12 09:07:27;;;;;;;0.70;0.60;;;2.60;96.10;;;;;;5065295;28;20723;-75
2021/12/12 09:09:57;;;;;;;1.37;0.90;;;2.60;96.00;;;;;;5070500;28;20187;-75
2021/12/12 09:12:27;;;;;;;0.73;0.73;;;2.50;96.00;;;;;;5082413;28;20837;-74
2021/12/12 09:15:01;;;;;;;1.23;1.13;;;2.50;96.20;;;;;;5070878;28;20182;-75
2021/12/12 09:17:48;;;;;;;1.13;1.13;;;2.50;96.70;;;;;;5064653;28;20234;-74
2021/12/12 09:20:35;;;;;;;3.90;1.00;;;2.50;97.20;;;;;;5071732;28;20225;-74
2021/12/12 09:23:06;;;;;;;1.60;1.27;;;2.50;97.60;;;;;;5069658;28;20286;-75
2021/12/12 09:25:49;;;;;;;0.93;0.93;;;2.50;97.50;;;;;;5068781;28;20187;-75
2021/12/12 09:28:40;;;;;;;1.00;1.00;;;2.50;97.50;;;;;;5069930;28;20320;-75
2021/12/12 09:31:10;;;;;;;0.93;0.93;;;2.60;97.50;;;;;;5070158;28;20178;-74
2021/12/12 09:33:49;;;;;;;1.27;1.27;;;2.60;97.50;;;;;;5070833;28;21035;-74
2021/12/12 09:36:34;;;;;;;1.43;1.33;;;2.60;97.30;;;;;;5070845;28;20588;-75
2021/12/12 09:39:27;;;;;;;1.70;1.60;;;2.60;97.30;;;;;;5069684;28;20709;-75
2021/12/12 09:41:56;;;;;;;1.30;1.20;;;2.60;96.90;;;;;;5073463;28;21008;-75
2021/12/12 09:44:48;;;;;;;2.27;1.17;;;2.60;97.10;;;;;;5070886;28;20612;-75
2021/12/12 09:53:16;;;;;;;0.70;0.63;;;2.50;96.50;;;;;;5032561;28;21138;-74
2021/12/12 09:55:54;;;;;;;0.73;0.73;;;2.50;96.10;;;;;;5027624;28;20195;-75
2021/12/12 09:58:41;;;;;;;0.67;0.67;;;2.50;96.20;;;;;;5029428;28;20915;-75
2021/12/12 10:01:17;;;;;;;0.63;0.63;;;2.50;95.90;;;;;;5027278;28;20227;-75
2021/12/12 10:03:54;;;;;;;0.47;0.47;;;2.60;96.00;;;;;;5028864;28;20212;-75
2021/12/12 10:06:28;;;;;;;2.07;0.80;;;2.60;96.20;;;;;;5032637;28;20323;-75
2021/12/12 10:09:18;;;;;;;1.43;1.43;;;2.60;95.70;;;;;;5032737;28;20182;-75
2021/12/12 10:11:50;;;;;;;1.57;1.47;;;2.60;95.20;;;;;;5045192;28;20688;-75
2021/12/12 10:14:28;;;;;;;2.53;1.47;;;2.70;95.40;;;;;;5028848;28;20203;-75
2021/12/12 10:17:08;;;;;;;1.33;1.23;;;2.70;95.40;;;;;;5030261;28;20189;-75
2021/12/12 10:19:43;;;;;;;2.07;1.63;;;2.60;94.70;;;;;;5031747;28;20262;-75
2021/12/12 10:22:33;;;;;;;1.90;1.50;;;2.60;94.70;;;;;;5027140;28;20309;-75
2021/12/12 10:25:10;;;;;;;1.43;1.43;;;2.60;95.40;;;;;;5021975;28;20204;-75
2021/12/12 10:27:49;;;;;;;1.20;1.10;;;2.60;95.20;;;;;;5058245;28;20552;-75
2021/12/12 10:30:36;;;;;;;1.40;1.30;;;2.70;95.30;;;;;;5069569;28;20661;-75
2021/12/12 10:33:15;;;;;;;2.20;1.07;;;2.70;95.40;;;;;;5081657;28;20186;-76
2021/12/12 10:36:07;;;;;;;2.13;0.97;;;2.70;95.20;;;;;;5073442;28;20190;-76
2021/12/12 10:38:59;;;;;;;3.40;1.27;;;2.70;95.00;;;;;;5075653;28;20242;-75
2021/12/12 10:41:38;;;;;;;0.70;0.70;;;2.60;95.00;;;;;;5072576;28;20186;-75
2021/12/12 10:44:19;;;;;;;0.77;0.77;;;2.50;95.40;;;;;;5069336;28;20209;-74
2021/12/12 10:47:23;;;;;;;0.67;0.67;;;2.50;95.50;;;;;;5080456;28;20192;-74
2021/12/12 10:50:04;;;;;;;0.90;0.73;;;2.60;95.80;;;;;;5072144;28;20237;-76
2021/12/12 10:52:56;;;;;;;0.40;0.40;;;2.70;95.70;;;;;;5069553;28;20178;-76
2021/12/12 10:55:47;;;;;;;3.53;0.53;;;2.80;95.60;;;;;;5076375;28;20285;-75
2021/12/12 10:58:25;;;;;;;0.93;0.77;;;2.70;95.40;;;;;;5075327;28;20267;-76
2021/12/12 11:01:00;;;;;;;0.43;0.43;;;2.70;95.40;;;;;;5075130;28;20598;-76
2021/12/12 11:03:32;;;;;;;0.50;0.50;;;2.70;95.60;;;;;;5070633;28;20196;-76
2021/12/12 11:06:11;;;;;;;1.00;0.60;;;2.70;95.60;;;;;;5070685;28;20178;-75
2021/12/12 11:08:50;;;;;;;0.37;0.37;;;2.70;95.50;;;;;;5071012;28;20295;-76
2021/12/12 11:11:21;;;;;;;0.40;0.40;;;2.70;95.60;;;;;;5069742;28;20194;-75
2021/12/12 11:14:17;;;;;;;0.47;0.47;;;2.70;95.70;;;;;;5074585;28;20570;-75
2021/12/12 11:17:03;;;;;;;0.47;0.47;;;2.70;96.20;;;;;;4984997;28;20206;-76
2021/12/12 11:19:32;;;;;;;0.60;0.60;;;2.60;96.10;;;;;;4983289;28;20220;-77
2021/12/12 11:22:05;;;;;;;0.43;0.43;;;2.50;96.40;;;;;;4984233;28;20193;-77
2021/12/12 11:24:40;;;;;;;0.53;0.53;;;2.40;96.20;;;;;;4982474;28;20675;-77
2021/12/12 11:27:34;;;;;;;0.70;0.70;;;2.30;96.40;;;;;;4980137;28;20266;-79
2021/12/12 11:30:07;;;;;;;0.63;0.63;;;2.20;96.50;;;;;;4946091;28;20286;-77
2021/12/12 11:32:35;;;;;;;0.47;0.47;;;2.20;97.10;;;;;;4930664;28;20685;-76
2021/12/12 11:35:04;;;;;;;0.57;0.57;;;2.20;97.60;;;;;;4927980;29;20207;-77
2021/12/12 11:37:47;;;;;;;0.60;0.60;;;2.10;97.90;;;;;;4944666;28;20258;-78
2021/12/12 11:40:39;;;;;;;2.43;0.87;;;2.10;98.20;;;;;;4945819;28;20237;-77
2021/12/12 11:43:20;;;;;;;0.93;0.60;;;2.10;98.20;;;;;;4946660;28;20277;-76
2021/12/12 11:46:03;;;;;;;0.80;0.80;;;2.10;98.50;;;;;;4945119;28;20191;-75
2021/12/12 11:48:44;;;;;;;0.87;0.70;;;2.10;98.50;;;;;;4948706;28;20250;-75
2021/12/12 11:51:12;;;;;;;1.93;0.97;;;2.20;98.50;;;;;;4947433;28;20677;-74
2021/12/12 11:53:39;;;;;;;0.67;0.67;;;2.20;98.50;;;;;;4974619;28;20722;-74
2021/12/12 11:56:16;;;;;;;0.57;0.57;;;2.20;98.10;;;;;;5008381;28;20189;-75
2021/12/12 11:58:50;;;;;;;0.83;0.83;;;2.20;98.00;;;;;;5003363;28;20245;-75
2021/12/12 12:01:33;;;;;;;0.63;0.63;;;2.20;98.00;;;;;;5006305;28;20228;-74
2021/12/12 12:04:36;;;;;;;0.53;0.53;;;2.20;97.40;;;;;;5009048;28;20203;-73
2021/12/12 12:07:36;;;;;;;0.63;0.63;;;2.10;97.30;;;;;;5037372;28;20194;-74
2021/12/12 12:10:05;;;;;;;0.70;0.70;;;2.10;97.60;;;;;;5071955;28;20182;-76
2021/12/12 12:12:36;;;;;;;0.80;0.80;;;2.10;97.50;;;;;;5071659;28;20187;-74
2021/12/12 12:15:26;;;;;;;0.80;0.80;;;2.10;97.90;;;;;;5072542;28;20186;-73
2021/12/12 12:18:03;;;;;;;1.03;0.93;;;2.10;98.00;;;;;;5066045;28;20215;-74
2021/12/12 12:21:14;;;;;;;1.03;0.90;;;2.10;98.00;;;;;;5068954;28;20215;-74
2021/12/12 12:24:17;;;;;;;0.90;0.90;;;2.10;97.90;;;;;;5024713;28;20192;-74
2021/12/12 12:26:58;;;;;;;0.60;0.60;;;2.10;97.70;;;;;;5022386;28;20184;-74
2021/12/12 12:29:27;;;;;;;0.50;0.50;;;2.10;97.40;;;;;;5027615;28;20682;-75
2021/12/12 12:32:34;;;;;;;0.63;0.63;;;2.10;97.10;;;;;;5027187;28;20193;-75
2021/12/12 12:35:37;;;;;;;1.23;0.50;;;2.10;97.00;;;;;;4977692;28;20213;-74
2021/12/12 12:38:30;;;;;;;0.50;0.50;;;2.10;97.00;;;;;;4981792;28;20185;-74
2021/12/12 12:41:49;;;;;;;0.67;0.67;;;2.10;97.00;;;;;;4982805;28;21127;-73
2021/12/12 12:44:39;;;;;;;0.47;0.47;;;2.10;97.10;;;;;;4923725;29;20196;-74
2021/12/12 12:47:32;;;;;;;0.53;0.53;;;2.10;97.30;;;;;;4923297;29;20245;-74
2021/12/12 12:50:16;;;;;;;0.50;0.50;;;2.10;97.60;;;;;;4924110;29;20204;-74
2021/12/12 12:53:04;;;;;;;0.63;0.60;;;2.10;97.20;;;;;;4922439;29;20278;-74
2021/12/12 12:55:33;;;;;;;0.40;0.40;;;2.10;97.30;;;;;;4925480;29;20314;-75
2021/12/12 12:58:23;;;;;;;0.63;0.63;;;2.10;97.20;;;;;;4908813;29;20210;-75
2021/12/12 13:00:55;;;;;;;1.00;0.80;;;2.10;97.50;;;;;;4933406;29;20234;-75
2021/12/12 13:03:42;;;;;;;1.07;0.63;;;2.00;97.70;;;;;;4941829;28;20310;-76
2021/12/12 13:06:45;;;;;;;0.73;0.73;;;2.10;97.90;;;;;;4942665;28;20217;-74
2021/12/12 13:09:19;;;;;;;0.70;0.70;;;2.10;98.00;;;;;;4943649;29;20195;-75
2021/12/12 13:12:17;;;;;;;0.33;0.33;;;2.10;97.70;;;;;;4974037;28;20206;-75
2021/12/12 13:15:13;;;;;;;0.40;0.40;;;2.10;97.80;;;;;;5004423;28;20196;-75
2021/12/12 13:18:17;;;;;;;0.30;0.30;;;2.00;98.00;;;;;;5021715;28;20708;-75
2021/12/12 13:21:08;;;;;;;0.50;0.50;;;2.00;97.80;;;;;;5073798;28;20213;-74
2021/12/12 13:24:05;;;;;;;0.50;0.50;;;2.00;97.60;;;;;;5068116;28;20190;-74
2021/12/12 13:27:09;;;;;;;0.73;0.73;;;2.00;97.90;;;;;;5067180;28;20179;-75
2021/12/12 13:29:53;;;;;;;0.77;0.50;;;2.00;98.30;;;;;;5072651;28;20240;-77
2021/12/12 13:32:28;;;;;;;0.50;0.50;;;2.00;98.00;;;;;;5066298;28;20743;-74
2021/12/12 13:35:07;;;;;;;0.50;0.50;;;2.00;97.80;;;;;;5068269;28;20217;-74
2021/12/12 13:38:21;;;;;;;1.07;1.07;;;1.90;97.30;;;;;;5069909;28;20214;-75
2021/12/12 13:41:36;;;;;;;0.60;0.60;;;1.90;97.40;;;;;;4993634;28;20316;-74
2021/12/12 13:44:34;;;;;;;0.47;0.47;;;1.90;97.30;;;;;;4954222;28;20213;-74
2021/12/12 13:47:22;;;;;;;0.53;0.53;;;1.90;97.30;;;;;;4959376;28;20199;-75
2021/12/12 13:50:29;;;;;;;0.50;0.50;;;1.90;96.70;;;;;;4950618;28;20194;-75
2021/12/12 13:53:17;;;;;;;0.60;0.60;;;2.00;96.40;;;;;;4902310;29;20200;-75
2021/12/12 13:55:50;;;;;;;0.60;0.57;;;1.90;96.00;;;;;;4905381;29;20718;-76
2021/12/12 13:58:28;;;;;;;0.50;0.50;;;1.90;95.90;;;;;;4905273;29;20204;-75
2021/12/12 14:01:04;;;;;;;0.70;0.60;;;1.90;95.50;;;;;;4904786;29;20247;-76
2021/12/12 14:03:45;;;;;;;1.70;0.40;;;1.90;95.70;;;;;;4904955;29;20203;-76